Time;durP1;ratioP1;P1;durP2;ratioP2;P2;SDS_P1;SDS_P2;PMS_P1;PMS_P2;Temp;Humidity;BMP_temperature;BMP_pressure;BME280_temperature;BME280_humidity;BME280_pressure;Samples;Min_cycle;Max_cycle;Signal;HPM_P1;HPM_P2
2021/10/30 00:01:05;;;;;;;22.40;11.50;;;;;;;;;;10456657;28;20083;-83
2021/10/30 00:06:05;;;;;;;16.20;10.18;;;;;;;;;;10455354;28;20029;-83
2021/10/30 00:11:06;;;;;;;17.88;10.10;;;;;;;;;;10458002;28;20393;-83
2021/10/30 00:16:06;;;;;;;14.52;9.75;;;;;;;;;;10458820;28;20074;-83
2021/10/30 00:21:06;;;;;;;14.80;10.10;;;;;;;;;;10452786;28;20033;-83
2021/10/30 00:26:07;;;;;;;14.60;9.70;;;;;;;;;;10462927;28;20017;-82
2021/10/30 00:31:07;;;;;;;14.00;9.98;;;;;;;;;;10456095;28;20419;-82
2021/10/30 00:36:08;;;;;;;20.57;9.20;;;;;;;;;;10454121;28;20033;-82
2021/10/30 00:41:09;;;;;;;16.90;9.63;;;;;;;;;;10444251;28;20390;-83
2021/10/30 00:46:10;;;;;;;18.60;9.13;;;;;;;;;;10457967;28;20102;-82
2021/10/30 00:51:11;;;;;;;11.70;8.88;;;;;;;;;;10457330;28;20040;-82
2021/10/30 00:56:12;;;;;;;10.18;8.65;;;;;;;;;;10453437;28;20051;-82
2021/10/30 01:01:12;;;;;;;10.90;8.50;;;;;;;;;;10454676;28;20057;-82
2021/10/30 01:06:13;;;;;;;12.60;8.50;;;;;;;;;;10456118;28;20139;-81
2021/10/30 01:11:15;;;;;;;13.17;8.30;;;;;;;;;;10455011;28;20037;-81
2021/10/30 01:16:20;;;;;;;18.08;9.30;;;;;;;;;;10456618;28;20482;-81
2021/10/30 01:21:31;;;;;;;14.25;8.50;;;;;;;;;;10456896;28;20036;-81
2021/10/30 01:26:32;;;;;;;11.65;8.52;;;;;;;;;;10455855;28;20071;-82
2021/10/30 01:31:32;;;;;;;14.75;9.02;;;;;;;;;;10456811;28;20064;-82
2021/10/30 01:36:35;;;;;;;12.32;8.95;;;;;;;;;;10455728;28;20112;-82
2021/10/30 01:41:36;;;;;;;14.05;7.80;;;;;;;;;;10456551;28;20052;-82
2021/10/30 01:46:36;;;;;;;11.20;8.27;;;;;;;;;;10458142;28;20048;-82
2021/10/30 01:51:36;;;;;;;12.00;7.88;;;;;;;;;;10457745;28;20040;-82
2021/10/30 01:56:37;;;;;;;14.07;7.80;;;;;;;;;;10457070;28;20086;-81
2021/10/30 02:01:37;;;;;;;11.37;8.07;;;;;;;;;;10454999;28;20032;-82
2021/10/30 02:06:38;;;;;;;12.00;8.03;;;;;;;;;;10456118;28;20100;-82
2021/10/30 02:11:38;;;;;;;10.30;7.90;;;;;;;;;;10460589;28;20044;-83
2021/10/30 02:16:38;;;;;;;11.87;8.00;;;;;;;;;;10462978;28;20450;-83
2021/10/30 02:21:39;;;;;;;8.90;7.53;;;;;;;;;;10462779;28;20450;-82
2021/10/30 02:26:39;;;;;;;8.97;7.10;;;;;;;;;;10463378;28;20526;-81
2021/10/30 02:31:39;;;;;;;12.77;7.97;;;;;;;;;;10462562;28;20414;-82
2021/10/30 02:36:40;;;;;;;10.95;7.10;;;;;;;;;;10458555;28;20116;-82
2021/10/30 02:41:40;;;;;;;14.18;8.10;;;;;;;;;;10460371;28;20056;-82
2021/10/30 02:46:41;;;;;;;12.77;8.30;;;;;;;;;;10461438;28;20073;-82
2021/10/30 02:51:41;;;;;;;12.98;7.38;;;;;;;;;;10461767;28;21034;-81
2021/10/30 02:56:41;;;;;;;11.10;7.13;;;;;;;;;;10461892;28;20418;-81
2021/10/30 03:01:42;;;;;;;9.63;7.90;;;;;;;;;;10461262;28;20545;-81
2021/10/30 03:06:43;;;;;;;9.48;6.97;;;;;;;;;;10461232;28;20454;-81
2021/10/30 03:11:43;;;;;;;16.05;8.60;;;;;;;;;;10460793;28;20021;-82
2021/10/30 03:16:43;;;;;;;12.80;7.47;;;;;;;;;;10461034;28;20463;-82
2021/10/30 03:21:44;;;;;;;10.43;6.93;;;;;;;;;;10459854;28;20510;-81
2021/10/30 03:26:44;;;;;;;10.47;6.53;;;;;;;;;;10459785;28;20044;-82
2021/10/30 03:31:45;;;;;;;9.67;7.17;;;;;;;;;;10459998;28;20033;-81
2021/10/30 03:36:45;;;;;;;7.93;6.53;;;;;;;;;;10459643;28;20040;-81
2021/10/30 03:41:45;;;;;;;8.70;7.10;;;;;;;;;;10459651;28;20442;-82
2021/10/30 03:46:46;;;;;;;9.00;6.83;;;;;;;;;;10460294;28;20049;-82
2021/10/30 03:51:46;;;;;;;9.43;6.80;;;;;;;;;;10459551;28;20442;-83
2021/10/30 03:56:47;;;;;;;8.50;6.28;;;;;;;;;;10459003;28;20040;-81
2021/10/30 04:01:47;;;;;;;7.30;6.45;;;;;;;;;;10459449;28;20375;-82
2021/10/30 04:06:48;;;;;;;8.10;6.63;;;;;;;;;;10459166;28;20078;-82
2021/10/30 04:11:48;;;;;;;8.60;6.17;;;;;;;;;;10458445;28;20064;-82
2021/10/30 04:16:49;;;;;;;8.83;6.40;;;;;;;;;;10458694;28;20032;-82
2021/10/30 04:21:49;;;;;;;6.95;6.05;;;;;;;;;;10458143;28;20032;-82
2021/10/30 04:26:50;;;;;;;9.43;6.73;;;;;;;;;;10457969;28;20116;-82
2021/10/30 04:31:53;;;;;;;7.40;6.05;;;;;;;;;;10457832;28;20977;-82
2021/10/30 04:36:57;;;;;;;9.25;6.63;;;;;;;;;;10457888;28;20055;-82
2021/10/30 04:41:57;;;;;;;8.68;6.30;;;;;;;;;;10457641;28;20521;-81
2021/10/30 04:46:57;;;;;;;8.13;5.90;;;;;;;;;;10457613;28;20081;-81
2021/10/30 04:51:58;;;;;;;7.40;6.10;;;;;;;;;;10457181;28;20507;-82
2021/10/30 04:56:58;;;;;;;9.27;5.63;;;;;;;;;;10455969;28;20068;-82
2021/10/30 05:01:59;;;;;;;8.45;6.13;;;;;;;;;;10456606;28;20025;-83
2021/10/30 05:07:00;;;;;;;7.95;6.38;;;;;;;;;;10456630;28;20455;-82
2021/10/30 05:12:00;;;;;;;8.70;6.30;;;;;;;;;;10455616;28;20021;-82
2021/10/30 05:17:01;;;;;;;9.57;6.90;;;;;;;;;;10456081;28;20094;-85
2021/10/30 05:22:01;;;;;;;8.37;6.00;;;;;;;;;;10456334;28;20438;-86
2021/10/30 05:27:02;;;;;;;7.25;5.88;;;;;;;;;;10458662;28;20455;-83
2021/10/30 05:32:02;;;;;;;12.85;6.18;;;;;;;;;;10458640;28;20036;-87
2021/10/30 05:37:03;;;;;;;6.07;5.30;;;;;;;;;;10458693;28;20056;-83
2021/10/30 05:42:04;;;;;;;7.82;5.40;;;;;;;;;;10457466;28;20074;-83
2021/10/30 05:47:07;;;;;;;8.07;5.72;;;;;;;;;;10462678;28;20132;-83
2021/10/30 05:52:09;;;;;;;7.03;5.32;;;;;;;;;;10464553;28;20040;-85
2021/10/30 05:57:11;;;;;;;7.32;5.85;;;;;;;;;;10463745;28;20032;-84
2021/10/30 06:02:12;;;;;;;7.03;5.55;;;;;;;;;;10456430;28;20099;-83
2021/10/30 06:07:12;;;;;;;6.70;5.75;;;;;;;;;;10463647;28;20082;-83
2021/10/30 06:12:12;;;;;;;6.47;5.53;;;;;;;;;;10462475;28;20112;-83
2021/10/30 06:17:13;;;;;;;6.70;5.70;;;;;;;;;;10461428;28;20770;-83
2021/10/30 06:22:14;;;;;;;6.60;5.13;;;;;;;;;;10460995;28;20430;-86
2021/10/30 06:27:14;;;;;;;5.65;5.10;;;;;;;;;;10458486;28;20521;-86
2021/10/30 06:32:15;;;;;;;7.73;6.03;;;;;;;;;;10460368;28;20095;-88
2021/10/30 06:37:15;;;;;;;8.23;5.85;;;;;;;;;;10449113;28;20442;-83
2021/10/30 06:42:15;;;;;;;19.93;6.77;;;;;;;;;;10451783;28;20142;-86
2021/10/30 06:47:16;;;;;;;22.47;7.53;;;;;;;;;;10458012;28;20506;-86
2021/10/30 06:52:17;;;;;;;13.52;7.68;;;;;;;;;;10459051;28;20808;-85
2021/10/30 06:57:17;;;;;;;11.40;7.22;;;;;;;;;;10455755;28;20079;-86
2021/10/30 07:02:17;;;;;;;16.98;8.27;;;;;;;;;;10460583;28;20111;-90
2021/10/30 07:07:18;;;;;;;22.53;8.43;;;;;;;;;;10459606;28;20450;-89
2021/10/30 07:12:18;;;;;;;34.00;8.73;;;;;;;;;;10456463;28;20044;-89
2021/10/30 07:17:20;;;;;;;29.27;8.63;;;;;;;;;;10459983;28;20079;-88
2021/10/30 07:22:20;;;;;;;34.05;8.57;;;;;;;;;;10460814;28;20455;-87
2021/10/30 07:27:21;;;;;;;23.73;8.40;;;;;;;;;;10453189;28;20021;-90
2021/10/30 07:32:22;;;;;;;36.22;8.77;;;;;;;;;;10452704;28;20470;-90
2021/10/30 07:37:23;;;;;;;30.90;8.50;;;;;;;;;;10464203;28;20067;-91
2021/10/30 07:42:24;;;;;;;27.10;8.65;;;;;;;;;;10465727;28;20029;-89
2021/10/30 07:47:25;;;;;;;39.15;9.30;;;;;;;;;;10495040;23;20051;-89
2021/10/30 07:52:26;;;;;;;24.40;9.32;;;;;;;;;;10505625;28;20382;-81
2021/10/30 07:57:27;;;;;;;27.23;9.95;;;;;;;;;;10490550;28;20048;-88
2021/10/30 08:02:28;;;;;;;21.83;9.25;;;;;;;;;;10499139;28;20458;-87
2021/10/30 08:07:28;;;;;;;29.23;9.37;;;;;;;;;;10472655;28;20413;-87
2021/10/30 08:12:29;;;;;;;34.25;10.40;;;;;;;;;;10498320;28;20556;-86
2021/10/30 08:17:31;;;;;;;26.88;10.15;;;;;;;;;;10497982;28;20020;-87
2021/10/30 08:22:31;;;;;;;29.50;10.45;;;;;;;;;;10490786;28;20071;-87
2021/10/30 08:27:32;;;;;;;26.08;9.15;;;;;;;;;;10491916;28;20024;-86
2021/10/30 08:32:33;;;;;;;30.33;9.52;;;;;;;;;;10493230;28;20021;-85
2021/10/30 08:37:34;;;;;;;24.60;9.52;;;;;;;;;;10496295;28;20043;-86
2021/10/30 08:42:35;;;;;;;23.75;8.88;;;;;;;;;;10497885;28;20021;-86
2021/10/30 08:47:37;;;;;;;33.08;9.65;;;;;;;;;;10497463;28;20127;-82
2021/10/30 08:52:38;;;;;;;36.38;10.15;;;;;;;;;;10494342;28;20029;-83
2021/10/30 08:57:38;;;;;;;31.23;9.35;;;;;;;;;;10497567;28;20127;-82
2021/10/30 09:02:39;;;;;;;34.55;9.50;;;;;;;;;;10501970;28;20044;-82
2021/10/30 09:07:40;;;;;;;21.50;10.17;;;;;;;;;;10477802;28;20029;-83
2021/10/30 09:12:50;;;;;;;25.17;9.60;;;;;;;;;;10456429;28;20454;-83
2021/10/30 09:17:50;;;;;;;25.65;9.82;;;;;;;;;;10456217;28;20398;-83
2021/10/30 09:22:55;;;;;;;16.48;8.77;;;;;;;;;;10472422;28;20029;-83
2021/10/30 09:28:02;;;;;;;26.25;8.40;;;;;;;;;;10456447;28;20033;-83
2021/10/30 09:33:05;;;;;;;22.77;9.10;;;;;;;;;;10456368;28;20111;-83
2021/10/30 09:38:06;;;;;;;28.55;8.15;;;;;;;;;;10475348;28;20055;-83
2021/10/30 09:43:16;;;;;;;27.63;8.55;;;;;;;;;;10460983;28;20032;-83
2021/10/30 09:48:23;;;;;;;22.77;9.05;;;;;;;;;;10455867;28;20098;-83
2021/10/30 09:53:35;;;;;;;15.18;8.77;;;;;;;;;;10483728;28;20021;-84
2021/10/30 09:58:37;;;;;;;16.42;8.77;;;;;;;;;;10478019;28;20036;-83
2021/10/30 10:03:39;;;;;;;19.35;8.20;;;;;;;;;;10489196;28;20033;-83
2021/10/30 10:08:44;;;;;;;23.20;7.90;;;;;;;;;;10454661;28;20049;-83
2021/10/30 10:13:47;;;;;;;25.67;8.85;;;;;;;;;;10484216;28;20119;-83
2021/10/30 10:18:55;;;;;;;21.45;8.23;;;;;;;;;;10455343;28;20036;-82
2021/10/30 10:23:56;;;;;;;18.20;8.43;;;;;;;;;;10482805;28;20068;-82
2021/10/30 10:29:03;;;;;;;18.45;8.57;;;;;;;;;;10456338;28;20057;-82
2021/10/30 10:34:08;;;;;;;16.63;8.10;;;;;;;;;;10472430;28;20553;-81
2021/10/30 10:39:18;;;;;;;21.50;8.05;;;;;;;;;;10462676;28;20040;-81
2021/10/30 10:44:27;;;;;;;14.25;7.97;;;;;;;;;;10462381;28;20107;-81
2021/10/30 10:55:02;;;;;;;13.85;7.57;;;;;;;;;;10462134;28;20047;-81
2021/10/30 11:00:14;;;;;;;17.33;8.23;;;;;;;;;;10482397;28;20052;-81
2021/10/30 11:05:19;;;;;;;14.25;8.45;;;;;;;;;;10470914;28;20025;-81
2021/10/30 11:10:26;;;;;;;12.85;7.43;;;;;;;;;;10474349;28;20090;-81
2021/10/30 11:15:27;;;;;;;22.92;8.82;;;;;;;;;;10479799;28;20355;-82
2021/10/30 11:20:42;;;;;;;16.33;8.32;;;;;;;;;;10490275;28;20061;-81
2021/10/30 11:25:43;;;;;;;18.23;8.23;;;;;;;;;;10496007;28;20040;-82
2021/10/30 11:30:43;;;;;;;18.70;8.43;;;;;;;;;;10494819;28;20451;-82
2021/10/30 11:36:00;;;;;;;15.77;8.43;;;;;;;;;;10483880;28;20441;-82
2021/10/30 11:41:04;;;;;;;16.73;8.73;;;;;;;;;;10483245;28;20033;-81
2021/10/30 11:46:07;;;;;;;17.58;8.38;;;;;;;;;;10474693;28;20044;-81
2021/10/30 11:51:23;;;;;;;15.10;8.15;;;;;;;;;;10491125;28;20086;-82
2021/10/30 11:56:26;;;;;;;13.23;7.80;;;;;;;;;;10490962;28;20149;-82
2021/10/30 12:01:38;;;;;;;14.60;8.70;;;;;;;;;;10499414;28;20039;-81
2021/10/30 12:06:42;;;;;;;19.52;7.95;;;;;;;;;;10497511;28;20044;-82
2021/10/30 12:11:45;;;;;;;11.52;7.90;;;;;;;;;;10487014;28;20090;-81
2021/10/30 12:16:46;;;;;;;14.07;7.70;;;;;;;;;;10486055;28;20083;-81
2021/10/30 12:21:46;;;;;;;20.55;8.80;;;;;;;;;;10486581;28;20102;-81
2021/10/30 12:26:58;;;;;;;16.08;8.45;;;;;;;;;;10497909;28;20071;-80
2021/10/30 12:32:05;;;;;;;19.35;9.23;;;;;;;;;;10494752;28;20036;-80
2021/10/30 12:37:08;;;;;;;21.17;9.35;;;;;;;;;;10494805;28;20051;-81
2021/10/30 12:42:10;;;;;;;20.52;8.23;;;;;;;;;;10494646;28;20029;-82
2021/10/30 12:47:15;;;;;;;17.35;8.10;;;;;;;;;;10486966;28;20049;-82
2021/10/30 12:52:15;;;;;;;19.73;8.40;;;;;;;;;;10483558;28;20029;-83
2021/10/30 12:57:23;;;;;;;24.63;9.30;;;;;;;;;;10497957;28;20367;-82
2021/10/30 13:02:26;;;;;;;17.60;8.15;;;;;;;;;;10493986;28;20032;-82
2021/10/30 13:07:26;;;;;;;21.42;8.07;;;;;;;;;;10478313;28;20093;-81
2021/10/30 13:12:27;;;;;;;19.57;8.80;;;;;;;;;;10485820;28;20119;-81
2021/10/30 13:17:28;;;;;;;13.32;8.80;;;;;;;;;;10471899;28;20472;-81
2021/10/30 13:22:28;;;;;;;15.13;8.40;;;;;;;;;;10468263;28;20029;-81
2021/10/30 13:27:31;;;;;;;13.33;8.67;;;;;;;;;;10485436;28;20994;-81
2021/10/30 13:32:32;;;;;;;14.70;7.85;;;;;;;;;;10492833;28;20104;-82
2021/10/30 13:37:32;;;;;;;13.57;7.72;;;;;;;;;;10487106;28;20444;-85
2021/10/30 13:42:39;;;;;;;15.25;8.77;;;;;;;;;;10498108;28;20426;-84
2021/10/30 13:47:40;;;;;;;20.23;8.30;;;;;;;;;;10467929;28;20048;-84
2021/10/30 13:52:40;;;;;;;15.87;8.23;;;;;;;;;;10456826;28;20436;-83
2021/10/30 13:57:40;;;;;;;15.00;8.32;;;;;;;;;;10480802;28;20450;-84
2021/10/30 14:02:41;;;;;;;14.20;8.17;;;;;;;;;;10494327;28;20032;-84
2021/10/30 14:07:41;;;;;;;16.97;8.87;;;;;;;;;;10495060;28;20496;-84
2021/10/30 14:12:41;;;;;;;18.60;9.00;;;;;;;;;;10503306;28;20548;-84
2021/10/30 14:17:42;;;;;;;21.03;9.00;;;;;;;;;;10503836;28;20020;-84
2021/10/30 14:22:42;;;;;;;17.23;8.23;;;;;;;;;;10500572;28;20420;-84
2021/10/30 14:27:43;;;;;;;12.20;8.20;;;;;;;;;;10501692;28;20095;-84
2021/10/30 14:32:43;;;;;;;11.37;7.67;;;;;;;;;;10501723;28;20481;-84
2021/10/30 14:37:44;;;;;;;14.63;8.30;;;;;;;;;;10502670;28;20041;-84
2021/10/30 14:42:44;;;;;;;11.98;7.68;;;;;;;;;;10489384;28;20025;-84
2021/10/30 14:47:45;;;;;;;19.48;8.13;;;;;;;;;;10503738;28;20162;-83
2021/10/30 14:52:45;;;;;;;11.80;8.10;;;;;;;;;;10501817;28;20040;-83
2021/10/30 14:57:46;;;;;;;12.27;8.75;;;;;;;;;;10502110;28;20517;-83
2021/10/30 15:02:46;;;;;;;17.07;8.13;;;;;;;;;;10490176;28;20505;-83
2021/10/30 15:07:47;;;;;;;13.75;8.38;;;;;;;;;;10489474;28;20477;-83
2021/10/30 15:12:48;;;;;;;17.45;7.80;;;;;;;;;;10479031;28;20032;-83
2021/10/30 15:17:48;;;;;;;14.98;9.13;;;;;;;;;;10482235;28;20036;-83
2021/10/30 15:22:48;;;;;;;14.77;8.33;;;;;;;;;;10481229;28;20110;-83
2021/10/30 15:27:49;;;;;;;9.60;7.88;;;;;;;;;;10496603;28;21069;-85
2021/10/30 15:32:49;;;;;;;17.60;8.48;;;;;;;;;;10501523;28;20074;-84
2021/10/30 15:38:10;;;;;;;11.75;8.38;;;;;;;;;;10502695;28;20087;-85
2021/10/30 15:43:10;;;;;;;15.32;9.23;;;;;;;;;;10396913;28;20045;-85
2021/10/30 15:48:11;;;;;;;15.68;9.05;;;;;;;;;;10393923;28;20508;-85
2021/10/30 15:53:11;;;;;;;14.35;9.07;;;;;;;;;;10395234;28;20052;-84
2021/10/30 15:58:11;;;;;;;19.17;9.33;;;;;;;;;;10402553;28;20046;-84
2021/10/30 16:03:12;;;;;;;12.38;9.02;;;;;;;;;;10405129;28;20588;-83
2021/10/30 16:08:12;;;;;;;14.67;8.53;;;;;;;;;;10413640;28;20041;-83
2021/10/30 16:13:13;;;;;;;14.23;7.90;;;;;;;;;;10413348;28;20571;-84
2021/10/30 16:18:14;;;;;;;13.23;8.50;;;;;;;;;;10431292;28;20454;-84
2021/10/30 16:23:14;;;;;;;22.95;8.65;;;;;;;;;;10477155;28;20029;-84
2021/10/30 16:28:14;;;;;;;15.17;8.00;;;;;;;;;;10508263;28;20032;-84
2021/10/30 16:33:15;;;;;;;15.48;8.18;;;;;;;;;;10497442;28;20441;-83
2021/10/30 16:38:15;;;;;;;13.17;8.53;;;;;;;;;;10493602;28;20055;-84
2021/10/30 16:43:21;;;;;;;17.17;8.67;;;;;;;;;;10497957;28;20105;-84
2021/10/30 16:48:21;;;;;;;13.63;8.48;;;;;;;;;;10493040;28;20025;-85
2021/10/30 16:53:22;;;;;;;32.10;9.88;;;;;;;;;;10481184;28;20466;-82
2021/10/30 16:58:22;;;;;;;21.42;10.13;;;;;;;;;;10492176;28;20059;-83
2021/10/30 17:03:23;;;;;;;22.37;8.97;;;;;;;;;;10496056;28;20032;-83
2021/10/30 17:08:23;;;;;;;18.47;9.13;;;;;;;;;;10482257;28;20566;-83
2021/10/30 17:13:25;;;;;;;25.23;9.43;;;;;;;;;;10482121;28;20128;-82
2021/10/30 17:18:25;;;;;;;21.52;9.63;;;;;;;;;;10484420;28;20128;-81
2021/10/30 17:23:27;;;;;;;27.58;10.02;;;;;;;;;;10457621;28;20053;-81
2021/10/30 17:28:28;;;;;;;22.00;9.73;;;;;;;;;;10457102;28;20029;-82
2021/10/30 17:33:28;;;;;;;22.08;9.40;;;;;;;;;;10496435;28;20032;-82
2021/10/30 17:38:28;;;;;;;21.27;8.77;;;;;;;;;;10491289;28;20032;-81
2021/10/30 17:43:29;;;;;;;18.47;9.27;;;;;;;;;;10486507;28;20537;-82
2021/10/30 17:48:30;;;;;;;16.15;9.55;;;;;;;;;;10483422;28;20449;-82
2021/10/30 17:53:30;;;;;;;17.95;9.63;;;;;;;;;;10488346;28;20028;-81
2021/10/30 17:58:30;;;;;;;16.00;9.25;;;;;;;;;;10494056;28;20086;-82
2021/10/30 18:03:31;;;;;;;17.38;9.88;;;;;;;;;;10487485;28;20382;-82
2021/10/30 18:08:31;;;;;;;18.10;10.15;;;;;;;;;;10475837;28;20075;-81
2021/10/30 18:13:32;;;;;;;18.50;10.77;;;;;;;;;;10470291;28;20039;-82
2021/10/30 18:18:33;;;;;;;14.90;9.55;;;;;;;;;;10467817;28;20458;-82
2021/10/30 18:23:34;;;;;;;21.17;10.60;;;;;;;;;;10472591;28;20033;-81
2021/10/30 18:28:37;;;;;;;13.55;9.63;;;;;;;;;;10483812;28;20032;-81
2021/10/30 18:33:38;;;;;;;18.63;10.60;;;;;;;;;;10495548;28;20488;-82
2021/10/30 18:38:39;;;;;;;16.90;10.55;;;;;;;;;;10495846;28;20028;-82
2021/10/30 18:43:40;;;;;;;15.17;10.40;;;;;;;;;;10490269;28;20037;-82
2021/10/30 18:48:40;;;;;;;16.92;10.63;;;;;;;;;;10496732;28;20036;-82
2021/10/30 18:53:40;;;;;;;13.65;9.27;;;;;;;;;;10501857;28;20032;-82
2021/10/30 18:58:41;;;;;;;15.93;10.17;;;;;;;;;;10503220;28;20028;-82
2021/10/30 19:03:41;;;;;;;21.38;9.90;;;;;;;;;;10498719;28;20572;-82
2021/10/30 19:08:42;;;;;;;16.60;9.93;;;;;;;;;;10479733;28;20059;-82
2021/10/30 19:13:43;;;;;;;16.05;10.60;;;;;;;;;;10471904;28;20021;-82
2021/10/30 19:18:43;;;;;;;17.50;9.77;;;;;;;;;;10461851;28;20036;-82
2021/10/30 19:23:43;;;;;;;18.20;9.87;;;;;;;;;;10461701;28;20766;-82
2021/10/30 19:28:44;;;;;;;14.70;9.70;;;;;;;;;;10461790;28;20541;-82
2021/10/30 19:33:45;;;;;;;17.60;10.13;;;;;;;;;;10461299;28;20049;-82
2021/10/30 19:38:46;;;;;;;15.23;8.82;;;;;;;;;;10461607;28;20458;-81
2021/10/30 19:43:47;;;;;;;14.10;9.75;;;;;;;;;;10474277;23;20053;-80
2021/10/30 19:48:47;;;;;;;17.98;9.73;;;;;;;;;;10476737;28;20112;-82
2021/10/30 19:53:49;;;;;;;15.77;9.67;;;;;;;;;;10460965;28;20029;-82
2021/10/30 19:58:51;;;;;;;14.65;10.60;;;;;;;;;;10488218;28;20483;-82
2021/10/30 20:03:52;;;;;;;14.88;9.85;;;;;;;;;;10499018;28;20454;-81
2021/10/30 20:08:53;;;;;;;13.80;9.10;;;;;;;;;;10468214;28;20121;-82
2021/10/30 20:13:54;;;;;;;15.63;10.05;;;;;;;;;;10458224;28;20035;-81
2021/10/30 20:18:54;;;;;;;20.35;11.13;;;;;;;;;;10459209;28;20116;-81
2021/10/30 20:23:58;;;;;;;18.13;12.20;;;;;;;;;;10484561;28;20086;-82
2021/10/30 20:29:01;;;;;;;23.67;13.50;;;;;;;;;;10475209;28;20877;-82
2021/10/30 20:34:02;;;;;;;19.25;12.57;;;;;;;;;;10497865;28;20032;-81
2021/10/30 20:39:04;;;;;;;21.33;12.32;;;;;;;;;;10474554;28;20115;-82
2021/10/30 20:44:07;;;;;;;22.50;12.73;;;;;;;;;;10480266;28;20094;-82
2021/10/30 20:49:08;;;;;;;21.20;13.02;;;;;;;;;;10470995;28;20056;-81
2021/10/30 20:54:09;;;;;;;28.50;14.07;;;;;;;;;;10471497;28;20060;-81
2021/10/30 20:59:09;;;;;;;23.60;14.00;;;;;;;;;;10466359;28;20506;-81
2021/10/30 21:04:10;;;;;;;21.67;13.93;;;;;;;;;;10475267;28;20029;-82
2021/10/30 21:09:10;;;;;;;19.10;13.80;;;;;;;;;;10474374;28;20051;-81
2021/10/30 21:14:11;;;;;;;23.20;13.75;;;;;;;;;;10468193;28;20590;-82
2021/10/30 21:19:12;;;;;;;20.35;14.45;;;;;;;;;;10471440;28;20028;-81
2021/10/30 21:24:13;;;;;;;25.60;14.45;;;;;;;;;;10484593;28;20142;-81
2021/10/30 21:29:14;;;;;;;24.60;14.73;;;;;;;;;;10483743;28;20025;-81
2021/10/30 21:34:14;;;;;;;27.20;15.60;;;;;;;;;;10466014;28;20398;-81
2021/10/30 21:39:16;;;;;;;20.97;13.67;;;;;;;;;;10483301;28;20427;-81
2021/10/30 21:44:16;;;;;;;23.85;13.85;;;;;;;;;;10483591;28;20469;-81
2021/10/30 21:49:17;;;;;;;25.03;14.83;;;;;;;;;;10494305;28;20032;-81
2021/10/30 21:54:17;;;;;;;30.97;14.47;;;;;;;;;;10494448;28;20509;-82
2021/10/30 21:59:18;;;;;;;29.42;15.30;;;;;;;;;;10494194;28;20430;-81
2021/10/30 22:04:19;;;;;;;26.77;14.45;;;;;;;;;;10482176;28;20016;-80
2021/10/30 22:09:20;;;;;;;25.63;15.43;;;;;;;;;;10489659;28;20025;-80
2021/10/30 22:14:20;;;;;;;25.13;14.98;;;;;;;;;;10493832;28;20039;-81
2021/10/30 22:19:20;;;;;;;22.53;13.97;;;;;;;;;;10495926;28;20442;-80
2021/10/30 22:24:21;;;;;;;21.87;14.27;;;;;;;;;;10497287;28;20513;-82
2021/10/30 22:29:22;;;;;;;29.70;16.40;;;;;;;;;;10503459;28;20027;-81
2021/10/30 22:34:22;;;;;;;25.58;15.15;;;;;;;;;;10504615;28;20028;-81
2021/10/30 22:39:23;;;;;;;25.27;15.30;;;;;;;;;;10503950;28;20403;-81
2021/10/30 22:44:24;;;;;;;32.47;15.52;;;;;;;;;;10504445;28;20509;-81
2021/10/30 22:49:24;;;;;;;22.90;14.60;;;;;;;;;;10504323;28;20442;-81
2021/10/30 22:54:25;;;;;;;23.73;14.80;;;;;;;;;;10503932;28;20449;-81
2021/10/30 22:59:25;;;;;;;33.53;15.77;;;;;;;;;;10503522;28;20115;-81
2021/10/30 23:04:25;;;;;;;22.80;14.82;;;;;;;;;;10489856;28;20460;-81
2021/10/30 23:09:26;;;;;;;26.50;14.75;;;;;;;;;;10465286;28;20065;-81
2021/10/30 23:14:27;;;;;;;24.30;15.13;;;;;;;;;;10462407;28;20107;-81
2021/10/30 23:19:27;;;;;;;24.08;14.95;;;;;;;;;;10462239;28;20454;-81
2021/10/30 23:24:28;;;;;;;23.27;15.73;;;;;;;;;;10464396;28;20025;-81
2021/10/30 23:29:29;;;;;;;23.00;15.63;;;;;;;;;;10464498;28;21001;-81
2021/10/30 23:34:29;;;;;;;23.77;16.30;;;;;;;;;;10463825;28;20367;-80
2021/10/30 23:39:29;;;;;;;27.17;16.35;;;;;;;;;;10459415;28;20541;-80
2021/10/30 23:44:30;;;;;;;21.63;16.13;;;;;;;;;;10480807;28;20123;-81
2021/10/30 23:49:30;;;;;;;25.87;16.57;;;;;;;;;;10499683;28;20041;-81
2021/10/30 23:54:31;;;;;;;26.25;17.08;;;;;;;;;;10473904;28;20064;-81
2021/10/30 23:59:31;;;;;;;23.60;17.23;;;;;;;;;;10462885;28;20029;-81
